createdAt,value
2018-07-08T00:00:42.921Z,0
2018-07-08T00:01:44.284Z,0
2018-07-08T00:02:45.656Z,0
2018-07-08T00:03:47.021Z,0
2018-07-08T00:04:48.389Z,0
2018-07-08T00:05:49.744Z,0
2018-07-08T00:06:51.101Z,0
2018-07-08T00:07:52.464Z,0
2018-07-08T00:08:53.826Z,0
2018-07-08T00:09:55.202Z,0
2018-07-08T00:10:56.564Z,0
2018-07-08T00:11:57.919Z,0
2018-07-08T00:12:59.279Z,0
2018-07-08T00:14:00.634Z,0
2018-07-08T00:15:01.992Z,0
2018-07-08T00:16:03.340Z,0
2018-07-08T00:17:04.716Z,0
2018-07-08T00:18:06.074Z,0
2018-07-08T00:19:07.433Z,0
2018-07-08T00:20:08.807Z,0
2018-07-08T00:21:10.159Z,0
2018-07-08T00:22:11.519Z,0
2018-07-08T00:23:12.875Z,0
2018-07-08T00:24:14.266Z,0
2018-07-08T00:25:15.620Z,0
2018-07-08T00:26:16.975Z,0
2018-07-08T00:27:18.339Z,0
2018-07-08T00:28:19.696Z,0
2018-07-08T00:29:21.065Z,0
2018-07-08T00:30:22.416Z,0
2018-07-08T00:31:23.780Z,0
2018-07-08T00:32:25.141Z,0
2018-07-08T00:33:26.503Z,0
2018-07-08T00:34:27.874Z,0
2018-07-08T00:35:29.241Z,0
2018-07-08T00:36:30.616Z,0
2018-07-08T00:37:31.976Z,0
2018-07-08T00:38:33.339Z,0
2018-07-08T00:39:34.709Z,0
2018-07-08T00:40:36.056Z,0
2018-07-08T00:41:39.878Z,0
2018-07-08T00:42:40.372Z,0
2018-07-08T00:43:41.731Z,0
2018-07-08T00:44:43.094Z,0
2018-07-08T00:45:44.506Z,0
2018-07-08T00:46:45.871Z,0
2018-07-08T00:47:47.226Z,0
2018-07-08T00:48:48.601Z,0
2018-07-08T00:49:49.964Z,0
2018-07-08T00:50:51.319Z,0
2018-07-08T00:51:52.680Z,0
2018-07-08T00:52:54.046Z,0
2018-07-08T00:53:55.406Z,0
2018-07-08T00:54:56.765Z,0
2018-07-08T00:55:58.122Z,0
2018-07-08T00:56:59.487Z,0
2018-07-08T00:58:00.840Z,0
2018-07-08T00:59:02.209Z,0
2018-07-08T01:00:03.571Z,0
2018-07-08T01:01:04.936Z,0
2018-07-08T01:02:06.294Z,0
2018-07-08T01:03:07.649Z,0
2018-07-08T01:04:09.020Z,0
2018-07-08T01:05:10.382Z,0
2018-07-08T01:06:11.735Z,0
2018-07-08T01:07:13.104Z,0
2018-07-08T01:08:14.500Z,0
2018-07-08T01:09:15.866Z,0
2018-07-08T01:10:17.227Z,0
2018-07-08T01:11:18.605Z,0
2018-07-08T01:12:19.974Z,0
2018-07-08T01:13:21.339Z,0
2018-07-08T01:14:22.695Z,0
2018-07-08T01:15:24.065Z,0
2018-07-08T01:16:25.429Z,0
2018-07-08T01:17:26.781Z,0
2018-07-08T01:18:28.191Z,0
2018-07-08T01:19:29.522Z,0
2018-07-08T01:20:30.870Z,0
2018-07-08T01:21:32.239Z,0
2018-07-08T01:22:33.610Z,0
2018-07-08T01:23:34.963Z,0
2018-07-08T01:24:36.317Z,0
2018-07-08T01:25:37.676Z,0
2018-07-08T01:26:39.031Z,0
2018-07-08T01:27:40.392Z,0
2018-07-08T01:28:41.751Z,0
2018-07-08T01:29:43.105Z,0
2018-07-08T01:30:44.489Z,0
2018-07-08T01:31:45.840Z,0
2018-07-08T01:32:47.206Z,0
2018-07-08T01:33:48.570Z,0
2018-07-08T01:34:49.941Z,0
2018-07-08T01:35:51.301Z,0
2018-07-08T01:36:52.661Z,0
2018-07-08T01:37:54.026Z,0
2018-07-08T01:38:55.391Z,0
2018-07-08T01:39:56.747Z,0
2018-07-08T01:40:58.107Z,0
2018-07-08T01:41:59.470Z,0
2018-07-08T01:43:00.831Z,0
2018-07-08T01:44:02.190Z,0
2018-07-08T01:45:03.551Z,0
2018-07-08T01:46:04.913Z,0
2018-07-08T01:47:06.271Z,0
2018-07-08T01:48:07.626Z,0
2018-07-08T01:49:08.991Z,0
2018-07-08T01:50:10.357Z,0
2018-07-08T01:51:11.718Z,0
2018-07-08T01:52:13.070Z,0
2018-07-08T01:53:14.461Z,0
2018-07-08T01:54:15.835Z,0
2018-07-08T01:55:17.205Z,0
2018-07-08T01:56:18.566Z,0
2018-07-08T01:57:19.927Z,0
2018-07-08T01:58:21.276Z,0
2018-07-08T01:59:22.637Z,0
2018-07-08T02:00:24.011Z,0
2018-07-08T02:01:25.365Z,0
2018-07-08T02:02:26.720Z,0
2018-07-08T02:03:28.076Z,0
2018-07-08T02:04:29.432Z,0
2018-07-08T02:05:30.796Z,0
2018-07-08T02:06:32.162Z,0
2018-07-08T02:07:33.523Z,0
2018-07-08T02:08:34.895Z,0
2018-07-08T02:09:36.257Z,0
2018-07-08T02:10:37.606Z,0
2018-07-08T02:11:38.977Z,0
2018-07-08T02:12:40.327Z,0
2018-07-08T02:13:41.687Z,0
2018-07-08T02:14:43.050Z,0
2018-07-08T02:15:44.397Z,0
2018-07-08T02:16:45.752Z,0
2018-07-08T02:17:47.112Z,0
2018-07-08T02:18:48.472Z,0
2018-07-08T02:19:49.841Z,0
2018-07-08T02:20:51.198Z,0
2018-07-08T02:21:52.567Z,0
2018-07-08T02:22:53.917Z,0
2018-07-08T02:23:55.276Z,0
2018-07-08T02:24:56.638Z,0
2018-07-08T02:25:58.002Z,0
2018-07-08T02:26:59.362Z,0
2018-07-08T02:28:00.718Z,0
2018-07-08T02:29:02.097Z,0
2018-07-08T02:30:03.472Z,0
2018-07-08T02:31:04.828Z,0
2018-07-08T02:32:06.192Z,0
2018-07-08T02:33:07.557Z,0
2018-07-08T02:34:08.911Z,0
2018-07-08T02:35:10.262Z,0
2018-07-08T02:36:11.630Z,0
2018-07-08T02:37:12.982Z,0
2018-07-08T02:38:14.348Z,0
2018-07-08T02:39:15.708Z,0
2018-07-08T02:40:17.074Z,0
2018-07-08T02:41:18.442Z,0
2018-07-08T02:42:19.802Z,0
2018-07-08T02:43:21.159Z,0
2018-07-08T02:44:22.532Z,4
2018-07-08T02:45:23.879Z,4
2018-07-08T02:46:25.238Z,4
2018-07-08T02:47:26.592Z,4
2018-07-08T02:48:27.953Z,0
2018-07-08T02:49:29.312Z,4
2018-07-08T02:50:30.674Z,4
2018-07-08T02:51:32.053Z,4
2018-07-08T02:52:33.402Z,4
2018-07-08T02:53:34.752Z,8
2018-07-08T02:54:36.119Z,8
2018-07-08T02:55:37.467Z,12
2018-07-08T02:56:38.826Z,12
2018-07-08T02:57:40.197Z,12
2018-07-08T02:58:41.556Z,12
2018-07-08T02:59:42.912Z,16
2018-07-08T03:00:45.124Z,20
2018-07-08T03:01:46.485Z,20
2018-07-08T03:02:47.844Z,24
2018-07-08T03:03:49.212Z,28
2018-07-08T03:04:50.594Z,32
2018-07-08T03:05:51.947Z,36
2018-07-08T03:06:53.317Z,44
2018-07-08T03:07:54.673Z,48
2018-07-08T03:08:56.024Z,52
2018-07-08T03:09:57.384Z,60
2018-07-08T03:10:58.752Z,68
2018-07-08T03:12:00.117Z,80
2018-07-08T03:13:01.471Z,92
2018-07-08T03:14:02.834Z,104
2018-07-08T03:15:04.199Z,116
2018-07-08T03:16:05.559Z,124
2018-07-08T03:17:06.929Z,140
2018-07-08T03:18:08.278Z,156
2018-07-08T03:19:09.638Z,168
2018-07-08T03:20:11.003Z,188
2018-07-08T03:21:12.372Z,204
2018-07-08T03:22:13.762Z,224
2018-07-08T03:23:15.124Z,244
2018-07-08T03:24:16.493Z,268
2018-07-08T03:25:17.850Z,292
2018-07-08T03:26:19.207Z,316
2018-07-08T03:27:20.572Z,344
2018-07-08T03:28:21.937Z,372
2018-07-08T03:29:23.302Z,404
2018-07-08T03:30:24.657Z,436
2018-07-08T03:31:26.020Z,468
2018-07-08T03:32:27.373Z,508
2018-07-08T03:33:28.770Z,548
2018-07-08T03:34:30.067Z,588
2018-07-08T03:35:31.424Z,636
2018-07-08T03:36:32.792Z,684
2018-07-08T03:37:34.153Z,732
2018-07-08T03:38:35.507Z,780
2018-07-08T03:39:36.877Z,828
2018-07-08T03:40:38.227Z,876
2018-07-08T03:41:39.592Z,928
2018-07-08T03:42:40.957Z,984
2018-07-08T03:43:42.327Z,1048
2018-07-08T03:44:43.760Z,1116
2018-07-08T03:45:45.128Z,1176
2018-07-08T03:46:46.496Z,1232
2018-07-08T03:47:47.868Z,1276
2018-07-08T03:48:49.248Z,1312
2018-07-08T03:49:50.613Z,1360
2018-07-08T03:50:51.984Z,1416
2018-07-08T03:51:53.354Z,1476
2018-07-08T03:52:54.704Z,1536
2018-07-08T03:53:56.073Z,1596
2018-07-08T03:54:57.437Z,1656
2018-07-08T03:55:58.812Z,1720
2018-07-08T03:57:00.174Z,1796
2018-07-08T03:58:01.537Z,1876
2018-07-08T03:59:02.909Z,1972
2018-07-08T04:00:04.268Z,2084
2018-07-08T04:01:05.634Z,2208
2018-07-08T04:02:06.990Z,2328
2018-07-08T04:03:08.367Z,2432
2018-07-08T04:04:09.742Z,2528
2018-07-08T04:05:11.112Z,2616
2018-07-08T04:06:12.472Z,2696
2018-07-08T04:07:13.872Z,2772
2018-07-08T04:08:15.232Z,2844
2018-07-08T04:09:16.603Z,2924
2018-07-08T04:10:17.959Z,2996
2018-07-08T04:11:19.328Z,3064
2018-07-08T04:12:20.694Z,3140
2018-07-08T04:13:22.075Z,3208
2018-07-08T04:14:23.454Z,3280
2018-07-08T04:15:24.817Z,3348
2018-07-08T04:16:26.178Z,3412
2018-07-08T04:17:27.542Z,3480
2018-07-08T04:18:28.938Z,3540
2018-07-08T04:19:30.298Z,3600
2018-07-08T04:20:31.675Z,3664
2018-07-08T04:21:33.032Z,3724
2018-07-08T04:22:34.388Z,3784
2018-07-08T04:23:35.762Z,3848
2018-07-08T04:24:37.115Z,3908
2018-07-08T04:25:38.488Z,3968
2018-07-08T04:26:39.844Z,4028
2018-07-08T04:27:41.415Z,4092
2018-07-08T04:28:42.722Z,4156
2018-07-08T04:29:44.119Z,4216
2018-07-08T04:30:45.484Z,4276
2018-07-08T04:31:46.847Z,4336
2018-07-08T04:32:48.203Z,4400
2018-07-08T04:33:49.574Z,4460
2018-07-08T04:34:50.942Z,4520
2018-07-08T04:35:52.303Z,4576
2018-07-08T04:36:53.677Z,4632
2018-07-08T04:37:55.029Z,4688
2018-07-08T04:38:56.390Z,4744
2018-07-08T04:39:57.759Z,4800
2018-07-08T04:40:59.126Z,4856
2018-07-08T04:42:00.497Z,4916
2018-07-08T04:43:01.858Z,4968
2018-07-08T04:44:03.232Z,5024
2018-07-08T04:45:04.597Z,5080
2018-07-08T04:46:05.960Z,5132
2018-07-08T04:47:07.323Z,5184
2018-07-08T04:48:08.693Z,5236
2018-07-08T04:49:10.104Z,5288
2018-07-08T04:50:11.432Z,5344
2018-07-08T04:51:12.797Z,5400
2018-07-08T04:52:14.203Z,5456
2018-07-08T04:53:15.575Z,5520
2018-07-08T04:54:16.944Z,5576
2018-07-08T04:55:18.313Z,5636
2018-07-08T04:56:19.691Z,5696
2018-07-08T04:57:21.059Z,5752
2018-07-08T04:58:22.420Z,5812
2018-07-08T04:59:23.779Z,5868
2018-07-08T05:00:25.144Z,5916
2018-07-08T05:01:26.513Z,5968
2018-07-08T05:02:27.870Z,6016
2018-07-08T05:03:29.239Z,6064
2018-07-08T05:04:30.594Z,6116
2018-07-08T05:05:31.965Z,6156
2018-07-08T05:06:33.395Z,6200
2018-07-08T05:07:34.655Z,6248
2018-07-08T05:08:36.018Z,6296
2018-07-08T05:09:37.385Z,6352
2018-07-08T05:10:38.773Z,6404
2018-07-08T05:11:40.129Z,6456
2018-07-08T05:12:41.493Z,6508
2018-07-08T05:13:42.854Z,6560
2018-07-08T05:14:45.084Z,6616
2018-07-08T05:15:46.458Z,6668
2018-07-08T05:16:47.849Z,6720
2018-07-08T05:17:49.189Z,6772
2018-07-08T05:18:50.554Z,6816
2018-07-08T05:19:51.909Z,6860
2018-07-08T05:20:53.274Z,6904
2018-07-08T05:21:54.639Z,6948
2018-07-08T05:22:55.999Z,7000
2018-07-08T05:23:57.370Z,7048
2018-07-08T05:24:58.735Z,7104
2018-07-08T05:26:00.099Z,7156
2018-07-08T05:27:01.462Z,7208
2018-07-08T05:28:02.825Z,7268
2018-07-08T05:29:04.194Z,7324
2018-07-08T05:30:05.559Z,7384
2018-07-08T05:31:06.924Z,7452
2018-07-08T05:32:08.299Z,7512
2018-07-08T05:33:09.659Z,7580
2018-07-08T05:34:11.030Z,7644
2018-07-08T05:35:12.396Z,7704
2018-07-08T05:36:13.800Z,7764
2018-07-08T05:37:15.161Z,7824
2018-07-08T05:38:16.526Z,7892
2018-07-08T05:39:17.900Z,7956
2018-07-08T05:40:19.264Z,8048
2018-07-08T05:41:20.641Z,8588
2018-07-08T05:42:22.016Z,9792
2018-07-08T05:43:23.379Z,10652
2018-07-08T05:44:24.745Z,11248
2018-07-08T05:45:26.113Z,11524
2018-07-08T05:46:27.479Z,11624
2018-07-08T05:47:28.868Z,11700
2018-07-08T05:48:30.230Z,11776
2018-07-08T05:49:31.600Z,11872
2018-07-08T05:50:32.984Z,11976
2018-07-08T05:51:34.330Z,12060
2018-07-08T05:52:35.704Z,12168
2018-07-08T05:53:37.069Z,12264
2018-07-08T05:54:38.429Z,12384
2018-07-08T05:55:39.795Z,12496
2018-07-08T05:56:41.164Z,12616
2018-07-08T05:57:42.534Z,12748
2018-07-08T05:58:44.460Z,12860
2018-07-08T05:59:45.826Z,12980
2018-07-08T06:00:47.203Z,13112
2018-07-08T06:01:48.578Z,13248
2018-07-08T06:02:49.946Z,13380
2018-07-08T06:03:51.321Z,13508
2018-07-08T06:04:52.695Z,13644
2018-07-08T06:05:54.079Z,13768
2018-07-08T06:06:55.449Z,13900
2018-07-08T06:07:56.819Z,14068
2018-07-08T06:08:58.201Z,14248
2018-07-08T06:09:59.571Z,14468
2018-07-08T06:11:00.939Z,14716
2018-07-08T06:12:02.319Z,14972
2018-07-08T06:13:03.692Z,15304
2018-07-08T06:14:05.073Z,15796
2018-07-08T06:15:06.452Z,16460
2018-07-08T06:16:07.834Z,16944
2018-07-08T06:17:09.201Z,17172
2018-07-08T06:18:10.582Z,17700
2018-07-08T06:19:11.980Z,18764
2018-07-08T06:20:13.327Z,20224
2018-07-08T06:21:14.712Z,21952
2018-07-08T06:22:16.082Z,25888
2018-07-08T06:23:17.465Z,32512
2018-07-08T06:24:18.885Z,40320
2018-07-08T06:25:20.251Z,45920
2018-07-08T06:26:21.633Z,45664
2018-07-08T06:27:23.007Z,39648
2018-07-08T06:28:24.380Z,36000
2018-07-08T06:29:25.765Z,37632
2018-07-08T06:30:27.145Z,39392
2018-07-08T06:31:28.530Z,38816
2018-07-08T06:32:29.897Z,41184
2018-07-08T06:33:31.285Z,43776
2018-07-08T06:34:32.670Z,46432
2018-07-08T06:35:34.053Z,50048
2018-07-08T06:36:35.455Z,55872
2018-07-08T06:37:36.830Z,57376
2018-07-08T06:38:38.209Z,62368
2018-07-08T06:39:39.584Z,63616
2018-07-08T06:40:40.965Z,73792
2018-07-08T06:41:42.346Z,77344
2018-07-08T06:42:44.414Z,72864
2018-07-08T06:43:45.792Z,75168
2018-07-08T06:44:47.177Z,74592
2018-07-08T06:45:48.552Z,71296
2018-07-08T06:46:49.936Z,74240
2018-07-08T06:47:51.321Z,77248
2018-07-08T06:48:52.697Z,69568
2018-07-08T06:49:54.077Z,64800
2018-07-08T06:50:55.455Z,63072
2018-07-08T06:51:56.851Z,61024
2018-07-08T06:52:58.215Z,60480
2018-07-08T06:53:59.586Z,58176
2018-07-08T06:55:00.962Z,52352
2018-07-08T06:56:02.367Z,50976
2018-07-08T06:57:03.735Z,53952
2018-07-08T06:58:05.125Z,55872
2018-07-08T06:59:06.510Z,49024
2018-07-08T07:00:07.885Z,43776
2018-07-08T07:01:09.260Z,45312
2018-07-08T07:02:10.645Z,47520
2018-07-08T07:03:12.030Z,45760
2018-07-08T07:04:13.415Z,44256
2018-07-08T07:05:14.809Z,42816
2018-07-08T07:06:16.204Z,44416
2018-07-08T07:07:17.592Z,46400
2018-07-08T07:08:18.985Z,45536
2018-07-08T07:09:20.365Z,43136
2018-07-08T07:10:21.754Z,42848
2018-07-08T07:11:23.146Z,45120
2018-07-08T07:12:24.526Z,46272
2018-07-08T07:13:25.903Z,48256
2018-07-08T07:14:27.302Z,48768
2018-07-08T07:15:28.682Z,47424
2018-07-08T07:16:30.180Z,46208
2018-07-08T07:17:31.622Z,45088
2018-07-08T07:18:32.918Z,45280
2018-07-08T07:19:34.307Z,45184
2018-07-08T07:20:35.685Z,46240
2018-07-08T07:21:37.060Z,48160
2018-07-08T07:22:38.443Z,49792
2018-07-08T07:23:39.838Z,51808
2018-07-08T07:24:41.216Z,51456
2018-07-08T07:25:42.598Z,53248
2018-07-08T07:26:44.097Z,56224
2018-07-08T07:27:45.480Z,57984
2018-07-08T07:28:46.904Z,60192
2018-07-08T07:29:48.288Z,66304
2018-07-08T07:30:49.667Z,75360
2018-07-08T07:31:51.045Z,74144
2018-07-08T07:32:52.422Z,65536
2018-07-08T07:33:53.824Z,62720
2018-07-08T07:34:55.207Z,64480
2018-07-08T07:35:56.598Z,65312
2018-07-08T07:36:57.994Z,70048
2018-07-08T07:37:59.326Z,78816
2018-07-08T07:39:00.706Z,78720
2018-07-08T07:40:02.091Z,71424
2018-07-08T07:41:04.100Z,63328
2018-07-08T07:42:05.481Z,53920
2018-07-08T07:43:06.861Z,47392
2018-07-08T07:44:08.253Z,45888
2018-07-08T07:45:09.627Z,44000
2018-07-08T07:46:11.013Z,41632
2018-07-08T07:47:12.396Z,40352
2018-07-08T07:48:13.898Z,39840
2018-07-08T07:49:15.279Z,39616
2018-07-08T07:50:16.658Z,39552
2018-07-08T07:51:18.111Z,39488
2018-07-08T07:52:19.401Z,39584
2018-07-08T07:53:20.777Z,39776
2018-07-08T07:54:22.179Z,39936
2018-07-08T07:55:23.569Z,39968
2018-07-08T07:56:24.947Z,40000
2018-07-08T07:57:26.335Z,40160
2018-07-08T07:58:27.726Z,40320
2018-07-08T07:59:29.112Z,40640
2018-07-08T08:00:30.504Z,40928
2018-07-08T08:01:31.888Z,41088
2018-07-08T08:02:33.317Z,41216
2018-07-08T08:03:34.692Z,41440
2018-07-08T08:04:36.081Z,41472
2018-07-08T08:05:37.461Z,41856
2018-07-08T08:06:38.842Z,42080
2018-07-08T08:07:40.226Z,42176
2018-07-08T08:08:41.613Z,42432
2018-07-08T08:09:42.995Z,42592
2018-07-08T08:10:44.449Z,42688
2018-07-08T08:11:45.783Z,42784
2018-07-08T08:12:47.178Z,42912
2018-07-08T08:13:48.636Z,42976
2018-07-08T08:14:49.964Z,43104
2018-07-08T08:15:51.352Z,42976
2018-07-08T08:16:52.728Z,42656
2018-07-08T08:17:54.120Z,42720
2018-07-08T08:18:55.492Z,42592
2018-07-08T08:19:56.893Z,42304
2018-07-08T08:20:58.653Z,42048
2018-07-08T08:21:59.997Z,42144
2018-07-08T08:23:01.393Z,42112
2018-07-08T08:24:02.787Z,41920
2018-07-08T08:25:04.168Z,41984
2018-07-08T08:26:05.546Z,42112
2018-07-08T08:27:06.931Z,41792
2018-07-08T08:28:08.323Z,41888
2018-07-08T08:29:09.713Z,41568
2018-07-08T08:30:11.091Z,42048
2018-07-08T08:31:12.472Z,45344
2018-07-08T08:32:13.898Z,67584
2018-07-08T08:33:15.296Z,103104
2018-07-08T08:34:16.680Z,119936
2018-07-08T08:35:18.075Z,116992
2018-07-08T08:36:19.450Z,113664
2018-07-08T08:37:20.834Z,113344
2018-07-08T08:38:22.222Z,112928
2018-07-08T08:39:23.604Z,113600
2018-07-08T08:40:25.004Z,109696
2018-07-08T08:41:26.389Z,103648
2018-07-08T08:42:27.778Z,106368
2018-07-08T08:43:29.177Z,108960
2018-07-08T08:44:30.564Z,105472
2018-07-08T08:45:31.962Z,105248
2018-07-08T08:46:33.354Z,107072
2018-07-08T08:47:34.739Z,106112
2018-07-08T08:48:36.128Z,104992
2018-07-08T08:49:37.515Z,106144
2018-07-08T08:50:38.919Z,107104
2018-07-08T08:51:40.293Z,107968
2018-07-08T08:52:41.694Z,108960
2018-07-08T08:53:43.076Z,110336
2018-07-08T08:54:45.444Z,112064
2018-07-08T08:55:46.827Z,111200
2018-07-08T08:56:48.469Z,112384
2018-07-08T08:57:49.865Z,113056
2018-07-08T08:58:51.271Z,110272
2018-07-08T08:59:52.659Z,109984
2018-07-08T09:00:54.049Z,111264
2018-07-08T09:01:55.438Z,112000
2018-07-08T09:02:56.814Z,109664
2018-07-08T09:03:58.203Z,111488
2018-07-08T09:04:59.588Z,113280
2018-07-08T09:06:00.963Z,112768
2018-07-08T09:07:02.365Z,111968
2018-07-08T09:08:03.755Z,112640
2018-07-08T09:09:05.143Z,110848
2018-07-08T09:10:06.529Z,110688
2018-07-08T09:11:07.915Z,109856
2018-07-08T09:12:09.302Z,109280
2018-07-08T09:13:10.682Z,106400
2018-07-08T09:14:12.064Z,106592
2018-07-08T09:15:13.457Z,108640
2018-07-08T09:16:14.848Z,107904
2018-07-08T09:17:16.308Z,106432
2018-07-08T09:18:17.623Z,105856
2018-07-08T09:19:19.014Z,105792
2018-07-08T09:20:20.415Z,105536
2018-07-08T09:21:21.804Z,107808
2018-07-08T09:22:23.192Z,104320
2018-07-08T09:23:24.568Z,102080
2018-07-08T09:24:25.960Z,98656
2018-07-08T09:25:27.345Z,101472
2018-07-08T09:26:28.734Z,102048
2018-07-08T09:27:30.148Z,101952
2018-07-08T09:28:32.373Z,103680
2018-07-08T09:29:33.761Z,102720
2018-07-08T09:30:35.177Z,101056
2018-07-08T09:31:36.557Z,100288
2018-07-08T09:32:38.067Z,100096
2018-07-08T09:33:39.445Z,100544
2018-07-08T09:34:40.847Z,101440
2018-07-08T09:35:42.244Z,103040
2018-07-08T09:36:43.797Z,102784
2018-07-08T09:37:45.214Z,102080
2018-07-08T09:38:46.627Z,101344
2018-07-08T09:39:48.181Z,102976
2018-07-08T09:40:49.619Z,104384
2018-07-08T09:41:51.015Z,103648
2018-07-08T09:42:52.415Z,103808
2018-07-08T09:43:53.808Z,104256
2018-07-08T09:44:55.204Z,104960
2018-07-08T09:45:56.666Z,104032
2018-07-08T09:46:57.963Z,103232
2018-07-08T09:47:59.356Z,103712
2018-07-08T09:49:00.792Z,104160
2018-07-08T09:50:02.204Z,104224
2018-07-08T09:51:03.642Z,107104
2018-07-08T09:52:05.029Z,107104
2018-07-08T09:53:06.423Z,106528
2018-07-08T09:54:07.809Z,105728
2018-07-08T09:55:09.213Z,105280
2018-07-08T09:56:10.595Z,103584
2018-07-08T09:57:11.989Z,101312
2018-07-08T09:58:13.385Z,103008
2018-07-08T09:59:14.824Z,104032
2018-07-08T10:00:16.233Z,106272
2018-07-08T10:01:17.635Z,104512
2018-07-08T10:02:19.060Z,104672
2018-07-08T10:03:20.455Z,108640
2018-07-08T10:04:21.840Z,109248
2018-07-08T10:05:23.250Z,110752
2018-07-08T10:06:24.643Z,110784
2018-07-08T10:07:26.034Z,109472
2018-07-08T10:08:27.436Z,108512
2018-07-08T10:09:28.823Z,109248
2018-07-08T10:10:30.223Z,109120
2018-07-08T10:11:31.609Z,108640
2018-07-08T10:12:33.006Z,107424
2018-07-08T10:13:34.395Z,107584
2018-07-08T10:14:35.787Z,109152
2018-07-08T10:15:37.180Z,111008
2018-07-08T10:16:38.564Z,115296
2018-07-08T10:17:39.965Z,115648
2018-07-08T10:18:41.379Z,117952
2018-07-08T10:19:42.867Z,120128
2018-07-08T10:20:44.169Z,120640
2018-07-08T10:21:45.579Z,119392
2018-07-08T10:22:47.234Z,116416
2018-07-08T10:23:48.578Z,110016
2018-07-08T10:24:49.969Z,116736
2018-07-08T10:25:51.364Z,118464
2018-07-08T10:26:52.769Z,119392
2018-07-08T10:27:54.316Z,120800
2018-07-08T10:28:55.716Z,121216
2018-07-08T10:29:57.114Z,120864
2018-07-08T10:30:58.494Z,120704
2018-07-08T10:31:59.889Z,121600
2018-07-08T10:33:01.278Z,121504
2018-07-08T10:34:02.664Z,122208
2018-07-08T10:35:04.065Z,121728
2018-07-08T10:36:05.454Z,121344
2018-07-08T10:37:06.853Z,123008
2018-07-08T10:38:08.276Z,121760
2018-07-08T10:39:09.630Z,118496
2018-07-08T10:40:11.020Z,118240
2018-07-08T10:41:12.421Z,122176
2018-07-08T10:42:13.850Z,123040
2018-07-08T10:43:15.280Z,125632
2018-07-08T10:44:16.660Z,125600
2018-07-08T10:45:18.059Z,125312
2018-07-08T10:46:19.456Z,123776
2018-07-08T10:47:20.856Z,124224
2018-07-08T10:48:22.249Z,123456
2018-07-08T10:49:23.639Z,120960
2018-07-08T10:50:25.028Z,120416
2018-07-08T10:51:26.425Z,116896
2018-07-08T10:52:27.839Z,108768
2018-07-08T10:53:29.225Z,106208
2018-07-08T10:54:30.624Z,105344
2018-07-08T10:55:32.050Z,107584
2018-07-08T10:56:33.429Z,109984
2018-07-08T10:57:34.814Z,112672
2018-07-08T10:58:36.215Z,114112
2018-07-08T10:59:37.611Z,118752
2018-07-08T11:00:39.004Z,120320
2018-07-08T11:01:40.541Z,121152
2018-07-08T11:02:41.896Z,124448
2018-07-08T11:03:43.395Z,125856
2018-07-08T11:04:44.773Z,126848
2018-07-08T11:05:46.186Z,128768
2018-07-08T11:06:47.567Z,127232
2018-07-08T11:07:48.961Z,123168
2018-07-08T11:08:50.373Z,122432
2018-07-08T11:09:51.755Z,118880
2018-07-08T11:10:53.159Z,117792
2018-07-08T11:11:54.549Z,117248
2018-07-08T11:12:55.936Z,117824
2018-07-08T11:13:57.324Z,121120
2018-07-08T11:14:58.728Z,122944
2018-07-08T11:16:00.954Z,124704
2018-07-08T11:17:02.369Z,124000
2018-07-08T11:18:03.779Z,122400
2018-07-08T11:19:05.163Z,120800
2018-07-08T11:20:06.586Z,122816
2018-07-08T11:21:07.974Z,123936
2018-07-08T11:22:09.375Z,123264
2018-07-08T11:23:10.761Z,121792
2018-07-08T11:24:12.159Z,121728
2018-07-08T11:25:13.570Z,123008
2018-07-08T11:26:14.986Z,123104
2018-07-08T11:27:16.366Z,123232
2018-07-08T11:28:17.780Z,122176
2018-07-08T11:29:19.186Z,123520
2018-07-08T11:30:20.580Z,124448
2018-07-08T11:31:21.984Z,123584
2018-07-08T11:32:23.386Z,122304
2018-07-08T11:33:24.794Z,121728
2018-07-08T11:34:26.187Z,120544
2018-07-08T11:35:27.584Z,120416
2018-07-08T11:36:28.970Z,122112
2018-07-08T11:37:30.367Z,123296
2018-07-08T11:38:31.766Z,125536
2018-07-08T11:39:33.150Z,127360
2018-07-08T11:40:34.554Z,122432
2018-07-08T11:41:35.941Z,119680
2018-07-08T11:42:37.330Z,117344
2018-07-08T11:43:38.724Z,116608
2018-07-08T11:44:40.121Z,116320
2018-07-08T11:45:41.511Z,118464
2018-07-08T11:46:42.901Z,118496
2018-07-08T11:47:44.296Z,122016
2018-07-08T11:48:45.723Z,126112
2018-07-08T11:49:47.089Z,126048
2018-07-08T11:50:48.463Z,123488
2018-07-08T11:51:49.871Z,120032
2018-07-08T11:52:51.259Z,118432
2018-07-08T11:53:52.647Z,120416
2018-07-08T11:54:54.045Z,121984
2018-07-08T11:55:55.438Z,121568
2018-07-08T11:56:56.830Z,120448
2018-07-08T11:57:58.224Z,118208
2018-07-08T11:58:59.621Z,119296
2018-07-08T12:00:01.036Z,118944
2018-07-08T12:01:02.437Z,119584
2018-07-08T12:02:03.824Z,121248
2018-07-08T12:03:05.225Z,123200
2018-07-08T12:04:06.642Z,124576
2018-07-08T12:05:08.091Z,124576
2018-07-08T12:06:09.386Z,124128
2018-07-08T12:07:10.781Z,118912
2018-07-08T12:08:12.181Z,117824
2018-07-08T12:09:14.080Z,119904
2018-07-08T12:10:14.932Z,120416
2018-07-08T12:11:16.334Z,122208
2018-07-08T12:12:17.739Z,122880
2018-07-08T12:13:19.126Z,122400
2018-07-08T12:14:20.520Z,120448
2018-07-08T12:15:21.921Z,115456
2018-07-08T12:16:23.336Z,113312
2018-07-08T12:17:24.721Z,113696
2018-07-08T12:18:26.116Z,119392
2018-07-08T12:19:27.515Z,121408
2018-07-08T12:20:28.901Z,122016
2018-07-08T12:21:30.297Z,123200
2018-07-08T12:22:31.692Z,123552
2018-07-08T12:23:33.092Z,122784
2018-07-08T12:24:34.480Z,119808
2018-07-08T12:25:35.879Z,118272
2018-07-08T12:26:37.266Z,117504
2018-07-08T12:27:38.711Z,118112
2018-07-08T12:28:40.016Z,118560
2018-07-08T12:29:41.402Z,118144
2018-07-08T12:30:42.791Z,118048
2018-07-08T12:31:44.201Z,118656
2018-07-08T12:32:45.591Z,120704
2018-07-08T12:33:46.991Z,123200
2018-07-08T12:34:48.385Z,123552
2018-07-08T12:35:49.770Z,124448
2018-07-08T12:36:51.198Z,124256
2018-07-08T12:37:52.583Z,121184
2018-07-08T12:38:53.975Z,121184
2018-07-08T12:39:55.362Z,120352
2018-07-08T12:40:56.777Z,118432
2018-07-08T12:41:58.167Z,116992
2018-07-08T12:42:59.550Z,117216
2018-07-08T12:44:00.951Z,114880
2018-07-08T12:45:02.348Z,115616
2018-07-08T12:46:03.737Z,114880
2018-07-08T12:47:05.127Z,113536
2018-07-08T12:48:06.518Z,113600
2018-07-08T12:49:07.916Z,111936
2018-07-08T12:50:09.315Z,106944
2018-07-08T12:51:10.709Z,102784
2018-07-08T12:52:12.107Z,107008
2018-07-08T12:53:13.504Z,113504
2018-07-08T12:54:14.887Z,116992
2018-07-08T12:55:16.281Z,115616
2018-07-08T12:56:17.681Z,113376
2018-07-08T12:57:19.123Z,114016
2018-07-08T12:58:20.462Z,114176
2018-07-08T12:59:21.857Z,111360
2018-07-08T13:00:23.248Z,102080
2018-07-08T13:01:24.632Z,98944
2018-07-08T13:02:26.026Z,101984
2018-07-08T13:03:27.410Z,108736
2018-07-08T13:04:28.815Z,111168
2018-07-08T13:05:30.207Z,111424
2018-07-08T13:06:31.596Z,113792
2018-07-08T13:07:32.991Z,114528
2018-07-08T13:08:34.389Z,113952
2018-07-08T13:09:35.787Z,110496
2018-07-08T13:10:37.186Z,107712
2018-07-08T13:11:38.649Z,103488
2018-07-08T13:12:39.945Z,106560
2018-07-08T13:13:41.336Z,108288
2018-07-08T13:14:42.717Z,109184
2018-07-08T13:15:44.135Z,109248
2018-07-08T13:16:45.520Z,107040
2018-07-08T13:17:46.992Z,105248
2018-07-08T13:18:48.400Z,104736
2018-07-08T13:19:49.787Z,104608
2018-07-08T13:20:51.177Z,104896
2018-07-08T13:21:52.683Z,102720
2018-07-08T13:22:54.072Z,105184
2018-07-08T13:23:55.465Z,107840
2018-07-08T13:24:56.857Z,109920
2018-07-08T13:25:58.257Z,109504
2018-07-08T13:26:59.655Z,109280
2018-07-08T13:28:01.037Z,111360
2018-07-08T13:29:02.421Z,108544
2018-07-08T13:30:03.825Z,104896
2018-07-08T13:31:05.202Z,97568